createdAt,value
2023-04-12T00:02:54.387Z,11.10
2023-04-12T00:05:56.174Z,11.57
2023-04-12T00:09:01.369Z,12.27
2023-04-12T00:12:04.580Z,11.47
2023-04-12T00:15:08.173Z,10.97
2023-04-12T00:18:10.265Z,10.40
2023-04-12T00:21:11.996Z,11.97
2023-04-12T00:24:13.653Z,10.70
2023-04-12T00:27:15.408Z,9.80
2023-04-12T00:30:18.059Z,10.70
2023-04-12T00:33:20.395Z,10.20
2023-04-12T00:36:22.319Z,10.03
2023-04-12T00:39:24.014Z,10.30
2023-04-12T00:42:25.677Z,9.77
2023-04-12T00:45:27.802Z,9.63
2023-04-12T00:48:29.719Z,10.30
2023-04-12T00:51:33.629Z,10.63
2023-04-12T00:54:36.012Z,9.93
2023-04-12T00:57:39.295Z,9.90
2023-04-12T01:00:41.020Z,10.90
2023-04-12T01:03:43.710Z,10.27
2023-04-12T01:06:57.845Z,10.40
2023-04-12T01:10:08.899Z,9.40
2023-04-12T01:13:16.768Z,9.77
2023-04-12T01:16:28.853Z,9.60
2023-04-12T01:19:46.151Z,9.10
2023-04-12T01:23:03.711Z,10.23
2023-04-12T01:26:21.893Z,9.17
2023-04-12T01:29:25.857Z,9.20
2023-04-12T01:32:29.265Z,8.97
2023-04-12T01:35:33.941Z,9.30
2023-04-12T01:38:36.796Z,8.93
2023-04-12T01:41:41.936Z,8.97
2023-04-12T01:44:43.699Z,9.13
2023-04-12T01:47:45.842Z,9.00
2023-04-12T01:51:02.899Z,8.73
2023-04-12T01:54:11.684Z,8.13
2023-04-12T01:57:13.589Z,8.33
2023-04-12T02:00:16.988Z,7.40
2023-04-12T02:03:20.501Z,7.80
2023-04-12T02:06:24.088Z,8.40
2023-04-12T02:09:27.566Z,7.93
2023-04-12T02:12:29.216Z,7.73
2023-04-12T02:15:31.009Z,7.03
2023-04-12T02:18:35.954Z,7.10
2023-04-12T02:21:43.510Z,7.07
2023-04-12T02:24:45.794Z,7.33
2023-04-12T02:27:48.719Z,7.80
2023-04-12T02:30:54.194Z,7.23
2023-04-12T02:33:57.389Z,7.53
2023-04-12T02:37:00.153Z,6.97
2023-04-12T02:40:02.552Z,6.47
2023-04-12T02:43:06.066Z,7.33
2023-04-12T02:46:08.290Z,7.63
2023-04-12T02:49:18.723Z,7.13
2023-04-12T02:52:22.043Z,6.80
2023-04-12T02:55:36.779Z,7.33
2023-04-12T02:58:40.457Z,7.20
2023-04-12T03:01:46.638Z,6.97
2023-04-12T03:05:05.139Z,6.83
2023-04-12T03:08:14.591Z,7.00
2023-04-12T03:11:25.563Z,6.67
2023-04-12T03:14:27.254Z,6.97
2023-04-12T03:17:29.042Z,7.03
2023-04-12T03:20:31.507Z,7.27
2023-04-12T03:23:37.816Z,6.77
2023-04-12T03:26:50.339Z,6.30
2023-04-12T03:29:56.892Z,6.57
2023-04-12T03:32:59.349Z,6.60
2023-04-12T03:36:01.659Z,6.37
2023-04-12T03:39:06.001Z,7.37
2023-04-12T03:42:18.486Z,6.97
2023-04-12T03:45:24.490Z,7.37
2023-04-12T03:48:29.679Z,7.13
2023-04-12T03:51:31.686Z,7.10
2023-04-12T03:54:36.629Z,7.23
2023-04-12T03:57:42.584Z,6.73
2023-04-12T04:00:44.681Z,7.70
2023-04-12T04:03:46.701Z,7.57
2023-04-12T04:06:59.327Z,7.10
2023-04-12T04:10:03.307Z,7.40
2023-04-12T04:13:09.794Z,8.23
2023-04-12T04:16:12.145Z,8.03
2023-04-12T04:19:15.812Z,7.50
2023-04-12T04:22:21.649Z,8.77
2023-04-12T04:25:30.155Z,8.83
2023-04-12T04:28:37.333Z,8.23
2023-04-12T04:31:39.552Z,8.73
2023-04-12T04:34:43.889Z,8.50
2023-04-12T04:37:49.538Z,7.97
2023-04-12T04:40:53.942Z,10.00
2023-04-12T04:44:00.591Z,8.60
2023-04-12T04:47:06.934Z,9.30
2023-04-12T04:50:08.838Z,8.97
2023-04-12T04:53:10.547Z,8.17
2023-04-12T04:56:12.276Z,9.60
2023-04-12T04:59:17.595Z,9.03
2023-04-12T05:02:19.464Z,8.97
2023-04-12T05:05:23.487Z,9.13
2023-04-12T05:08:30.783Z,10.10
2023-04-12T05:11:33.503Z,9.77
2023-04-12T05:14:46.626Z,10.13
2023-04-12T05:17:52.547Z,9.53
2023-04-12T05:20:54.254Z,10.37
2023-04-12T05:23:56.117Z,12.50
2023-04-12T05:26:57.903Z,10.13
2023-04-12T05:29:59.774Z,9.67
2023-04-12T05:33:01.976Z,13.00
2023-04-12T05:36:04.461Z,11.20
2023-04-12T05:39:06.417Z,10.83
2023-04-12T05:42:10.092Z,10.17
2023-04-12T05:45:11.863Z,11.73
2023-04-12T05:48:14.634Z,13.00
2023-04-12T05:51:19.447Z,13.87
2023-04-12T05:54:24.114Z,12.53
2023-04-12T05:57:27.383Z,12.47
2023-04-12T06:00:29.192Z,13.03
2023-04-12T06:03:32.137Z,11.70
2023-04-12T06:06:41.759Z,12.37
2023-04-12T06:09:43.441Z,13.60
2023-04-12T06:12:45.660Z,12.17
2023-04-12T06:15:47.333Z,11.87
2023-04-12T06:18:49.090Z,11.23
2023-04-12T06:21:51.563Z,11.33
2023-04-12T06:24:54.593Z,11.80
2023-04-12T06:27:59.088Z,12.27
2023-04-12T06:31:01.651Z,12.67
2023-04-12T06:34:08.343Z,10.23
2023-04-12T06:37:12.906Z,11.03
2023-04-12T06:40:14.581Z,11.20
2023-04-12T06:43:19.171Z,9.53
2023-04-12T06:46:30.015Z,10.07
2023-04-12T06:49:31.892Z,9.50
2023-04-12T06:52:33.654Z,9.27
2023-04-12T06:55:35.330Z,10.10
2023-04-12T06:58:37.022Z,9.03
2023-04-12T07:01:39.260Z,7.30
2023-04-12T07:04:42.052Z,8.33
2023-04-12T07:07:44.446Z,7.80
2023-04-12T07:10:46.181Z,6.40
2023-04-12T07:13:47.923Z,7.77
2023-04-12T07:16:49.689Z,6.63
2023-04-12T07:19:52.273Z,7.63
2023-04-12T07:22:53.951Z,6.73
2023-04-12T07:25:59.114Z,6.90
2023-04-12T07:29:00.843Z,5.90
2023-04-12T07:32:03.188Z,6.00
2023-04-12T07:35:05.044Z,5.97
2023-04-12T07:38:06.877Z,5.77
2023-04-12T07:41:08.597Z,6.50
2023-04-12T07:44:10.278Z,6.97
2023-04-12T07:47:11.916Z,6.27
2023-04-12T07:50:14.004Z,5.00
2023-04-12T07:53:33.895Z,5.23
2023-04-12T07:56:35.867Z,4.60
2023-04-12T07:59:37.580Z,4.57
2023-04-12T08:02:39.323Z,5.60
2023-04-12T08:05:41.366Z,6.10
2023-04-12T08:08:43.178Z,5.60
2023-04-12T08:11:44.782Z,5.93
2023-04-12T08:14:46.745Z,6.53
2023-04-12T08:17:48.431Z,5.33
2023-04-12T08:20:50.208Z,4.10
2023-04-12T08:23:52.007Z,4.83
2023-04-12T08:26:53.710Z,5.13
2023-04-12T08:29:55.358Z,4.70
2023-04-12T08:32:57.202Z,4.20
2023-04-12T08:35:58.934Z,3.67
2023-04-12T08:39:01.114Z,4.00
2023-04-12T08:42:04.898Z,4.00
2023-04-12T08:45:07.273Z,4.93
2023-04-12T08:48:09.163Z,3.40
2023-04-12T08:51:13.152Z,3.83
2023-04-12T08:54:14.791Z,3.70
2023-04-12T08:57:18.218Z,3.13
2023-04-12T09:00:20.687Z,3.20
2023-04-12T09:03:22.690Z,2.53
2023-04-12T09:06:24.554Z,3.30
2023-04-12T09:09:45.645Z,3.70
2023-04-12T09:12:47.374Z,4.47
2023-04-12T09:15:52.083Z,4.40
2023-04-12T09:18:54.456Z,2.63
2023-04-12T09:21:56.530Z,3.20
2023-04-12T09:24:58.210Z,4.57
2023-04-12T09:27:59.798Z,7.73
2023-04-12T09:31:04.084Z,7.53
2023-04-12T09:34:07.434Z,5.30
2023-04-12T09:37:16.320Z,4.70
2023-04-12T09:40:23.809Z,5.20
2023-04-12T09:43:38.135Z,4.53
2023-04-12T09:46:50.132Z,5.27
2023-04-12T09:49:51.988Z,7.60
2023-04-12T09:52:53.972Z,6.77
2023-04-12T09:55:57.267Z,5.80
2023-04-12T09:59:01.364Z,8.07
2023-04-12T10:02:06.004Z,7.47
2023-04-12T10:05:08.306Z,6.03
2023-04-12T10:08:12.048Z,7.40
2023-04-12T10:11:13.753Z,7.17
2023-04-12T10:14:17.979Z,6.77
2023-04-12T10:17:20.384Z,7.13
2023-04-12T10:20:24.757Z,5.13
2023-04-12T10:23:30.046Z,5.97
2023-04-12T10:26:31.902Z,4.70
2023-04-12T10:29:36.306Z,3.90
2023-04-12T10:32:38.023Z,3.90
2023-04-12T10:35:50.694Z,3.30
2023-04-12T10:39:08.330Z,3.50
2023-04-12T10:42:20.629Z,3.00
2023-04-12T10:45:25.313Z,3.60
2023-04-12T10:48:33.193Z,3.20
2023-04-12T10:51:34.983Z,3.03
2023-04-12T10:54:45.271Z,3.80
2023-04-12T10:57:49.652Z,3.43
2023-04-12T11:00:59.611Z,3.33
2023-04-12T11:04:14.186Z,2.37
2023-04-12T11:07:19.144Z,3.37
2023-04-12T11:10:26.583Z,3.20
2023-04-12T11:13:28.251Z,2.60
2023-04-12T11:16:30.000Z,2.50
2023-04-12T11:19:32.489Z,2.70
2023-04-12T11:22:34.460Z,2.67
2023-04-12T11:25:37.064Z,2.23
2023-04-12T11:28:38.737Z,2.57
2023-04-12T11:31:40.723Z,2.37
2023-04-12T11:34:43.474Z,2.70
2023-04-12T11:37:45.853Z,2.87
2023-04-12T11:40:48.283Z,4.47
2023-04-12T11:43:49.988Z,3.00
2023-04-12T11:46:51.704Z,4.70
2023-04-12T11:49:57.807Z,2.53
2023-04-12T11:53:12.234Z,2.90
2023-04-12T11:56:13.995Z,3.37
2023-04-12T11:59:15.891Z,2.67
2023-04-12T12:02:23.466Z,2.83
2023-04-12T12:05:26.268Z,3.03
2023-04-12T12:08:28.097Z,2.50
2023-04-12T12:11:29.971Z,2.90
2023-04-12T12:14:33.498Z,3.03
2023-04-12T12:17:38.927Z,3.63
2023-04-12T12:20:50.751Z,3.90
2023-04-12T12:23:52.483Z,3.23
2023-04-12T12:26:54.778Z,3.00
2023-04-12T12:29:56.548Z,3.03
2023-04-12T12:32:58.297Z,3.23
2023-04-12T12:35:59.978Z,3.50
2023-04-12T12:39:10.668Z,3.50
2023-04-12T12:42:12.734Z,3.50
2023-04-12T12:45:14.920Z,3.87
2023-04-12T12:48:19.411Z,3.20
2023-04-12T12:51:21.277Z,3.77
2023-04-12T12:54:39.284Z,4.73
2023-04-12T12:57:43.829Z,4.00
2023-04-12T13:00:46.044Z,4.73
2023-04-12T13:03:47.802Z,4.63
2023-04-12T13:06:49.593Z,5.00
2023-04-12T13:09:51.722Z,3.80
2023-04-12T13:12:53.715Z,4.70
2023-04-12T13:15:56.084Z,5.20
2023-04-12T13:18:57.974Z,4.17
2023-04-12T13:21:59.773Z,4.30
2023-04-12T13:25:01.986Z,4.30
2023-04-12T13:28:03.771Z,3.60
2023-04-12T13:31:06.115Z,5.33
2023-04-12T13:34:07.731Z,4.03
2023-04-12T13:37:09.351Z,4.13
2023-04-12T13:40:11.056Z,3.70
2023-04-12T13:43:12.736Z,4.90
2023-04-12T13:46:14.432Z,5.07
2023-04-12T13:49:16.342Z,4.10
2023-04-12T13:52:18.016Z,4.73
2023-04-12T13:55:19.710Z,4.83
2023-04-12T13:58:21.647Z,4.73
2023-04-12T14:01:25.212Z,4.03
2023-04-12T14:04:27.905Z,3.60
2023-04-12T14:07:29.609Z,3.90
2023-04-12T14:10:31.289Z,4.50
2023-04-12T14:13:32.952Z,4.57
2023-04-12T14:16:34.548Z,4.27
2023-04-12T14:19:36.169Z,6.00
2023-04-12T14:22:37.997Z,4.33
2023-04-12T14:25:40.076Z,4.17
2023-04-12T14:28:41.839Z,3.27
2023-04-12T14:31:43.889Z,4.40
2023-04-12T14:34:46.445Z,2.97
2023-04-12T14:37:48.283Z,7.20
2023-04-12T14:40:49.988Z,4.60
2023-04-12T14:43:51.639Z,2.90
2023-04-12T14:46:53.473Z,3.37
2023-04-12T14:49:55.169Z,3.77
2023-04-12T14:52:56.783Z,4.03
2023-04-12T14:56:00.389Z,3.87
2023-04-12T14:59:02.161Z,5.00
2023-04-12T15:02:03.886Z,2.40
2023-04-12T15:05:08.390Z,3.63
2023-04-12T15:08:10.621Z,2.90
2023-04-12T15:11:12.616Z,3.93
2023-04-12T15:14:20.972Z,3.80
2023-04-12T15:17:24.369Z,2.60
2023-04-12T15:20:26.145Z,2.97
2023-04-12T15:23:28.567Z,4.57
2023-04-12T15:26:30.205Z,4.60
2023-04-12T15:29:31.808Z,6.20
2023-04-12T15:32:36.844Z,4.73
2023-04-12T15:35:39.176Z,3.20
2023-04-12T15:38:44.471Z,2.90
2023-04-12T15:41:46.450Z,4.40
2023-04-12T15:44:48.038Z,3.70
2023-04-12T15:47:49.810Z,3.37
2023-04-12T15:50:52.411Z,3.23
2023-04-12T15:53:54.281Z,2.87
2023-04-12T15:56:56.593Z,3.00
2023-04-12T15:59:59.504Z,3.13
2023-04-12T16:03:01.384Z,3.40
2023-04-12T16:06:03.823Z,2.47
2023-04-12T16:09:05.917Z,5.07
2023-04-12T16:12:07.571Z,5.80
2023-04-12T16:15:09.433Z,4.03
2023-04-12T16:18:11.273Z,5.17
2023-04-12T16:21:16.740Z,5.63
2023-04-12T16:24:19.931Z,4.17
2023-04-12T16:27:23.461Z,3.63
2023-04-12T16:30:26.064Z,4.10
2023-04-12T16:33:28.073Z,4.90
2023-04-12T16:36:31.478Z,3.77
2023-04-12T16:39:34.023Z,3.77
2023-04-12T16:42:35.825Z,3.50
2023-04-12T16:45:37.592Z,3.77
2023-04-12T16:48:41.143Z,2.03
2023-04-12T16:51:42.962Z,3.33
2023-04-12T16:54:44.832Z,4.17
2023-04-12T16:57:46.530Z,3.03
2023-04-12T17:00:48.190Z,4.13
2023-04-12T17:03:50.009Z,3.30
2023-04-12T17:06:54.188Z,5.30
2023-04-12T17:09:56.438Z,7.77
2023-04-12T17:12:58.692Z,3.73
2023-04-12T17:16:00.448Z,4.60
2023-04-12T17:19:02.149Z,3.60
2023-04-12T17:22:04.480Z,4.07
2023-04-12T17:25:07.006Z,3.00
2023-04-12T17:28:09.484Z,3.60
2023-04-12T17:31:11.508Z,10.10
2023-04-12T17:34:13.167Z,8.93
2023-04-12T17:37:14.922Z,5.23
2023-04-12T17:40:16.900Z,2.33
2023-04-12T17:43:18.551Z,7.13
2023-04-12T17:46:20.458Z,6.37
2023-04-12T17:49:22.353Z,4.83
2023-04-12T17:52:23.968Z,3.60
2023-04-12T17:55:30.626Z,3.40
2023-04-12T17:58:39.766Z,4.83
2023-04-12T18:01:41.924Z,3.73
2023-04-12T18:04:43.766Z,5.30
2023-04-12T18:07:45.577Z,4.20
2023-04-12T18:10:47.344Z,5.23
2023-04-12T18:13:49.305Z,3.43
2023-04-12T18:16:50.849Z,4.60
2023-04-12T18:19:52.508Z,2.97
2023-04-12T18:22:54.161Z,3.60
2023-04-12T18:25:56.111Z,4.37
2023-04-12T18:28:58.329Z,2.80
2023-04-12T18:32:00.288Z,3.40
2023-04-12T18:35:04.666Z,3.50
2023-04-12T18:38:06.342Z,3.80
2023-04-12T18:41:11.387Z,5.13
2023-04-12T18:44:13.381Z,5.83
2023-04-12T18:47:15.060Z,2.73
2023-04-12T18:50:19.555Z,3.30
2023-04-12T18:53:21.309Z,3.70
2023-04-12T18:56:25.898Z,5.93
2023-04-12T18:59:27.665Z,3.47
2023-04-12T19:02:29.434Z,3.07
2023-04-12T19:05:31.137Z,2.80
2023-04-12T19:08:33.001Z,3.30
2023-04-12T19:11:36.934Z,5.07
2023-04-12T19:14:38.897Z,4.87
2023-04-12T19:17:40.603Z,4.83
2023-04-12T19:20:42.300Z,2.73
2023-04-12T19:23:44.277Z,6.00
2023-04-12T19:26:47.364Z,6.40
2023-04-12T19:29:50.023Z,2.60
2023-04-12T19:32:51.814Z,4.23
2023-04-12T19:35:56.239Z,4.90
2023-04-12T19:38:58.252Z,2.20
2023-04-12T19:42:00.043Z,4.20
2023-04-12T19:45:02.382Z,2.40
2023-04-12T19:48:04.137Z,2.50
2023-04-12T19:51:05.945Z,3.33
2023-04-12T19:54:09.984Z,2.90
2023-04-12T19:57:11.796Z,4.07
2023-04-12T20:00:19.646Z,3.03
2023-04-12T20:03:21.927Z,2.73
2023-04-12T20:06:23.630Z,2.20
2023-04-12T20:09:26.237Z,3.30
2023-04-12T20:12:28.022Z,2.73
2023-04-12T20:15:29.669Z,4.27
2023-04-12T20:18:31.411Z,2.70
2023-04-12T20:21:34.220Z,3.10
2023-04-12T20:24:37.699Z,2.73
2023-04-12T20:27:39.461Z,3.13
2023-04-12T20:30:41.218Z,2.80
2023-04-12T20:33:43.186Z,2.40
2023-04-12T20:36:44.878Z,2.47
2023-04-12T20:39:46.542Z,2.00
2023-04-12T20:42:48.125Z,2.63
2023-04-12T20:45:50.793Z,2.90
2023-04-12T20:48:56.251Z,2.50
2023-04-12T20:51:59.133Z,2.87
2023-04-12T20:55:00.813Z,2.57
2023-04-12T20:58:03.971Z,2.10
2023-04-12T21:01:07.299Z,1.93
2023-04-12T21:04:09.089Z,2.30
2023-04-12T21:07:11.361Z,3.10
2023-04-12T21:10:13.412Z,3.00
2023-04-12T21:13:16.307Z,2.17
2023-04-12T21:16:18.012Z,3.30
2023-04-12T21:19:19.683Z,2.10
2023-04-12T21:22:21.647Z,2.67
2023-04-12T21:25:25.896Z,1.93
2023-04-12T21:28:29.610Z,1.87
2023-04-12T21:31:31.488Z,2.33
2023-04-12T21:34:33.918Z,2.27
2023-04-12T21:37:36.866Z,3.50
2023-04-12T21:40:38.490Z,4.60
2023-04-12T21:43:40.539Z,2.33
2023-04-12T21:46:42.197Z,2.33
2023-04-12T21:49:43.820Z,2.60
2023-04-12T21:52:47.277Z,1.93
2023-04-12T21:55:50.804Z,2.30
2023-04-12T21:58:52.494Z,2.67
2023-04-12T22:01:54.229Z,3.33
2023-04-12T22:04:56.316Z,2.60
2023-04-12T22:07:57.967Z,3.10
2023-04-12T22:11:00.337Z,3.80
2023-04-12T22:14:02.388Z,2.73
2023-04-12T22:17:05.918Z,2.90
2023-04-12T22:20:08.561Z,3.30
2023-04-12T22:23:10.300Z,4.67
2023-04-12T22:26:12.036Z,2.30
2023-04-12T22:29:13.719Z,2.40
2023-04-12T22:32:15.716Z,2.93
2023-04-12T22:35:17.658Z,4.23
2023-04-12T22:38:19.513Z,2.60
2023-04-12T22:41:21.193Z,2.33
2023-04-12T22:44:26.284Z,2.90
2023-04-12T22:47:28.816Z,4.07
2023-04-12T22:50:30.462Z,5.80
2023-04-12T22:53:33.260Z,3.63
2023-04-12T22:56:41.727Z,2.90
2023-04-12T22:59:43.368Z,3.10
2023-04-12T23:02:46.261Z,3.40
2023-04-12T23:05:50.316Z,6.13
2023-04-12T23:08:52.142Z,2.70
2023-04-12T23:11:53.776Z,4.00
2023-04-12T23:14:55.925Z,2.83
2023-04-12T23:17:57.682Z,3.00
2023-04-12T23:21:01.012Z,4.83
2023-04-12T23:24:02.867Z,12.63
2023-04-12T23:27:04.570Z,4.33
2023-04-12T23:30:06.573Z,2.30
2023-04-12T23:33:09.460Z,3.13
2023-04-12T23:36:11.769Z,2.50
2023-04-12T23:39:13.659Z,2.70
2023-04-12T23:42:15.279Z,2.73
2023-04-12T23:45:17.222Z,2.50
2023-04-12T23:48:19.410Z,2.60
2023-04-12T23:51:22.161Z,3.07
2023-04-12T23:54:24.255Z,2.97
2023-04-12T23:57:26.203Z,3.80
